createdAt,value
2017-11-21T07:18:21.955Z,5.63
2017-11-21T07:19:21.921Z,5.63
2017-11-21T07:22:06.472Z,5.63
2017-11-21T07:23:06.283Z,5.63
2017-11-21T07:25:50.799Z,5.63
2017-11-21T07:26:50.649Z,5.63
2017-11-21T07:29:35.053Z,5.63
2017-11-21T07:30:35.005Z,5.63
2017-11-21T07:33:19.397Z,5.63
2017-11-21T07:34:19.347Z,5.63
2017-11-21T07:37:03.800Z,5.63
2017-11-21T07:38:03.709Z,5.63
2017-11-21T07:40:48.676Z,11.25
2017-11-21T07:41:51.166Z,11.25
2017-11-21T07:44:33.041Z,11.25
2017-11-21T07:45:32.926Z,11.25
2017-11-21T07:48:17.331Z,11.25
2017-11-21T07:49:17.276Z,16.88
2017-11-21T07:52:01.660Z,16.88
2017-11-21T07:53:01.630Z,16.88
2017-11-21T07:55:46.027Z,22.50
2017-11-21T07:56:45.980Z,22.50
2017-11-21T07:59:30.392Z,16.88
2017-11-21T08:00:30.906Z,16.88
2017-11-21T08:03:13.730Z,16.88
2017-11-21T08:04:16.271Z,22.50
2017-11-21T08:06:58.094Z,22.50
2017-11-21T08:07:58.045Z,28.13
2017-11-21T08:08:58.041Z,28.13
2017-11-21T08:09:58.048Z,33.75
2017-11-21T08:10:58.037Z,33.75
2017-11-21T08:11:58.028Z,33.75
2017-11-21T08:12:58.029Z,33.75
2017-11-21T08:13:58.038Z,28.13
2017-11-21T08:14:58.010Z,28.13
2017-11-21T08:15:58.003Z,22.50
2017-11-21T08:16:57.996Z,22.50
2017-11-21T08:17:58.002Z,22.50
2017-11-21T08:18:57.994Z,22.50
2017-11-21T08:19:57.988Z,22.50
2017-11-21T08:20:57.975Z,22.50
2017-11-21T08:21:57.982Z,22.50
2017-11-21T08:22:57.967Z,28.13
2017-11-21T08:23:57.950Z,33.75
2017-11-21T08:24:57.948Z,39.38
2017-11-21T08:25:57.949Z,45.00
2017-11-21T08:26:57.938Z,39.38
2017-11-21T08:27:57.936Z,33.75
2017-11-21T08:28:57.949Z,22.50
2017-11-21T08:29:57.920Z,16.88
2017-11-21T08:30:57.916Z,16.88
2017-11-21T08:31:57.911Z,16.88
2017-11-21T08:32:57.901Z,16.88
2017-11-21T08:33:57.911Z,16.88
2017-11-21T08:34:57.891Z,16.88
2017-11-21T08:35:57.883Z,16.88
2017-11-21T08:36:57.883Z,16.88
2017-11-21T08:37:57.880Z,16.88
2017-11-21T08:38:57.858Z,16.88
2017-11-21T08:39:57.859Z,16.88
2017-11-21T08:40:57.852Z,16.88
2017-11-21T08:41:57.848Z,22.50
2017-11-21T08:42:57.845Z,33.75
2017-11-21T08:43:57.838Z,50.63
2017-11-21T08:44:57.833Z,61.88
2017-11-21T08:45:57.848Z,67.50
2017-11-21T08:46:57.824Z,67.50
2017-11-21T08:47:57.816Z,56.25
2017-11-21T08:48:57.813Z,45.00
2017-11-21T08:49:57.809Z,33.75
2017-11-21T08:50:57.794Z,33.75
2017-11-21T08:51:57.793Z,33.75
2017-11-21T08:52:57.782Z,39.38
2017-11-21T08:53:57.781Z,33.75
2017-11-21T08:54:57.810Z,28.13
2017-11-21T08:55:57.759Z,22.50
2017-11-21T08:56:57.759Z,22.50
2017-11-21T08:57:57.750Z,22.50
2017-11-21T08:58:57.759Z,22.50
2017-11-21T08:59:57.753Z,22.50
2017-11-21T09:00:57.744Z,22.50
2017-11-21T09:01:57.729Z,22.50
2017-11-21T09:02:57.732Z,22.50
2017-11-21T09:03:57.734Z,22.50
2017-11-21T09:04:57.714Z,22.50
2017-11-21T09:05:57.704Z,22.50
2017-11-21T09:06:57.707Z,22.50
2017-11-21T09:07:57.692Z,28.13
2017-11-21T09:08:57.687Z,28.13
2017-11-21T09:09:58.657Z,22.50
2017-11-21T09:10:58.653Z,22.50
2017-11-21T09:11:57.669Z,22.50
2017-11-21T09:12:57.666Z,22.50
2017-11-21T09:13:57.660Z,22.50
2017-11-21T09:14:57.660Z,22.50
2017-11-21T09:16:02.558Z,22.50
2017-11-21T09:16:58.160Z,22.50
2017-11-21T09:17:57.632Z,28.13
2017-11-21T09:18:57.634Z,28.13
2017-11-21T09:19:57.627Z,28.13
2017-11-21T09:20:57.632Z,33.75
2017-11-21T09:21:57.615Z,33.75
2017-11-21T09:22:57.607Z,33.75
2017-11-21T09:23:57.604Z,33.75
2017-11-21T09:24:57.591Z,33.75
2017-11-21T09:25:57.594Z,33.75
2017-11-21T09:26:58.163Z,33.75
2017-11-21T09:27:57.586Z,33.75
2017-11-21T09:28:57.578Z,33.75
2017-11-21T09:29:57.585Z,33.75
2017-11-21T09:30:57.558Z,33.75
2017-11-21T09:31:57.556Z,33.75
2017-11-21T09:32:57.550Z,33.75
2017-11-21T09:33:57.540Z,33.75
2017-11-21T09:34:57.538Z,33.75
2017-11-21T09:35:57.533Z,33.75
2017-11-21T09:36:57.530Z,33.75
2017-11-21T09:37:57.520Z,33.75
2017-11-21T09:38:57.515Z,33.75
2017-11-21T09:39:57.511Z,33.75
2017-11-21T09:40:57.505Z,33.75
2017-11-21T09:41:57.501Z,33.75
2017-11-21T09:42:57.487Z,33.75
2017-11-21T09:43:57.489Z,33.75
2017-11-21T09:44:57.480Z,33.75
2017-11-21T09:45:57.478Z,33.75
2017-11-21T09:46:57.474Z,33.75
2017-11-21T09:47:57.465Z,33.75
2017-11-21T09:48:57.458Z,33.75
2017-11-21T09:49:57.447Z,33.75
2017-11-21T09:50:57.447Z,33.75
2017-11-21T09:51:57.440Z,39.38
2017-11-21T09:52:57.432Z,39.38
2017-11-21T09:53:57.433Z,39.38
2017-11-21T09:54:57.427Z,39.38
2017-11-21T09:55:57.422Z,33.75
2017-11-21T09:56:57.418Z,33.75
2017-11-21T09:57:57.414Z,33.75
2017-11-21T09:58:57.397Z,28.13
2017-11-21T09:59:57.399Z,28.13
2017-11-21T10:00:57.405Z,28.13
2017-11-21T10:01:57.387Z,28.13
2017-11-21T10:02:57.371Z,28.13
2017-11-21T10:03:57.378Z,28.13
2017-11-21T10:04:57.374Z,28.13
2017-11-21T10:05:57.366Z,28.13
2017-11-21T10:06:57.366Z,33.75
2017-11-21T10:07:57.346Z,33.75
2017-11-21T10:08:57.345Z,33.75
2017-11-21T10:09:57.338Z,33.75
2017-11-21T10:10:57.344Z,33.75
2017-11-21T10:11:57.336Z,33.75
2017-11-21T10:12:57.327Z,28.13
2017-11-21T10:13:57.324Z,28.13
2017-11-21T10:14:58.180Z,28.13
2017-11-21T10:15:57.307Z,28.13
2017-11-21T10:16:57.293Z,28.13
2017-11-21T10:17:57.296Z,28.13
2017-11-21T10:18:57.284Z,28.13
2017-11-21T10:19:57.281Z,33.75
2017-11-21T10:20:57.278Z,33.75
2017-11-21T10:21:57.270Z,39.38
2017-11-21T10:22:57.272Z,39.38
2017-11-21T10:23:57.259Z,39.38
2017-11-21T10:24:57.252Z,45.00
2017-11-21T10:25:57.241Z,45.00
2017-11-21T10:26:57.240Z,45.00
2017-11-21T10:27:57.255Z,56.25
2017-11-21T10:28:57.238Z,61.88
2017-11-21T10:29:58.193Z,56.25
2017-11-21T10:30:57.229Z,56.25
2017-11-21T10:31:57.218Z,56.25
2017-11-21T10:32:58.195Z,61.88
2017-11-21T10:33:57.201Z,61.88
2017-11-21T10:34:57.207Z,61.88
2017-11-21T10:35:57.203Z,56.25
2017-11-21T10:36:57.193Z,50.63
2017-11-21T10:37:57.697Z,39.38
2017-11-21T10:38:57.177Z,39.38
2017-11-21T10:39:57.200Z,45.00
2017-11-21T10:40:57.167Z,45.00
2017-11-21T10:41:57.166Z,45.00
2017-11-21T10:42:57.153Z,39.38
2017-11-21T10:43:57.165Z,45.00
2017-11-21T10:44:57.145Z,50.63
2017-11-21T10:45:57.141Z,45.00
2017-11-21T10:46:57.141Z,45.00
2017-11-21T10:47:57.130Z,45.00
2017-11-21T10:48:57.130Z,39.38
2017-11-21T10:49:57.122Z,39.38
2017-11-21T10:50:57.706Z,39.38
2017-11-21T10:51:57.112Z,39.38
2017-11-21T10:52:57.110Z,45.00
2017-11-21T10:53:57.092Z,50.63
2017-11-21T10:54:59.707Z,50.63
2017-11-21T10:55:57.086Z,56.25
2017-11-21T10:56:57.078Z,50.63
2017-11-21T10:57:57.073Z,50.63
2017-11-21T10:58:57.068Z,45.00
2017-11-21T10:59:57.064Z,50.63
2017-11-21T11:00:57.058Z,50.63
2017-11-21T11:01:57.053Z,45.00
2017-11-21T11:02:57.700Z,45.00
2017-11-21T11:03:57.049Z,45.00
2017-11-21T11:04:57.038Z,45.00
2017-11-21T11:05:57.033Z,45.00
2017-11-21T11:06:57.030Z,45.00
2017-11-21T11:07:57.023Z,45.00
2017-11-21T11:08:57.019Z,45.00
2017-11-21T11:09:57.017Z,45.00
2017-11-21T11:10:57.013Z,50.63
2017-11-21T11:11:57.010Z,56.25
2017-11-21T11:12:57.707Z,56.25
2017-11-21T11:13:56.994Z,61.88
2017-11-21T11:14:56.984Z,61.88
2017-11-21T11:15:56.978Z,61.88
2017-11-21T11:16:56.973Z,61.88
2017-11-21T11:17:56.965Z,61.88
2017-11-21T11:18:56.964Z,67.50
2017-11-21T11:19:56.965Z,67.50
2017-11-21T11:20:56.957Z,67.50
2017-11-21T11:21:56.945Z,61.88
2017-11-21T11:22:56.950Z,61.88
2017-11-21T11:23:56.942Z,56.25
2017-11-21T11:24:56.937Z,56.25
2017-11-21T11:25:56.931Z,56.25
2017-11-21T11:26:56.924Z,56.25
2017-11-21T11:27:56.924Z,56.25
2017-11-21T11:28:56.927Z,61.88
2017-11-21T11:29:56.908Z,61.88
2017-11-21T11:30:57.715Z,56.25
2017-11-21T11:31:56.895Z,61.88
2017-11-21T11:32:56.891Z,67.50
2017-11-21T11:33:56.899Z,67.50
2017-11-21T11:34:56.882Z,73.13
2017-11-21T11:35:56.879Z,73.13
2017-11-21T11:36:56.892Z,67.50
2017-11-21T11:37:56.864Z,67.50
2017-11-21T11:38:56.858Z,67.50
2017-11-21T11:39:56.857Z,61.88
2017-11-21T11:40:56.849Z,61.88
2017-11-21T11:41:56.851Z,61.88
2017-11-21T11:42:56.846Z,56.25
2017-11-21T11:43:56.840Z,50.63
2017-11-21T11:44:56.832Z,45.00
2017-11-21T11:45:56.831Z,50.63
2017-11-21T11:46:56.830Z,50.63
2017-11-21T11:47:57.727Z,61.88
2017-11-21T11:48:57.724Z,56.25
2017-11-21T11:49:56.815Z,56.25
2017-11-21T11:50:56.806Z,56.25
2017-11-21T11:51:56.796Z,56.25
2017-11-21T11:52:56.792Z,50.63
2017-11-21T11:53:56.788Z,50.63
2017-11-21T11:54:56.781Z,56.25
2017-11-21T11:55:56.777Z,56.25
2017-11-21T11:56:57.727Z,56.25
2017-11-21T11:57:56.776Z,56.25
2017-11-21T11:58:56.769Z,56.25
2017-11-21T11:59:56.761Z,56.25
2017-11-21T12:00:56.749Z,56.25
2017-11-21T12:01:56.749Z,56.25
2017-11-21T12:02:56.748Z,56.25
2017-11-21T12:03:56.754Z,61.88
2017-11-21T12:04:56.728Z,61.88
2017-11-21T12:05:56.733Z,61.88
2017-11-21T12:06:56.725Z,56.25
2017-11-21T12:07:57.232Z,56.25
2017-11-21T12:08:56.714Z,50.63
2017-11-21T12:09:56.710Z,50.63
2017-11-21T12:10:56.713Z,50.63
2017-11-21T12:11:56.714Z,56.25
2017-11-21T12:12:57.239Z,56.25
2017-11-21T12:13:56.704Z,61.88
2017-11-21T12:14:56.686Z,67.50
2017-11-21T12:15:57.234Z,61.88
2017-11-21T12:16:57.267Z,61.88
2017-11-21T12:17:56.673Z,67.50
2017-11-21T12:18:56.657Z,78.75
2017-11-21T12:19:56.666Z,90.00
2017-11-21T12:20:56.657Z,90.00
2017-11-21T12:21:56.651Z,95.63
2017-11-21T12:22:56.655Z,90.00
2017-11-21T12:23:56.638Z,73.13
2017-11-21T12:24:56.632Z,78.75
2017-11-21T12:25:56.630Z,73.13
2017-11-21T12:26:56.640Z,78.75
2017-11-21T12:27:57.247Z,84.38
2017-11-21T12:28:56.617Z,78.75
2017-11-21T12:29:56.623Z,61.88
2017-11-21T12:30:56.609Z,56.25
2017-11-21T12:31:56.605Z,50.63
2017-11-21T12:32:56.606Z,45.00
2017-11-21T12:33:56.603Z,45.00
2017-11-21T12:34:56.585Z,39.38
2017-11-21T12:35:57.264Z,39.38
2017-11-21T12:36:56.581Z,39.38
2017-11-21T12:37:56.593Z,39.38
2017-11-21T12:38:56.575Z,45.00
2017-11-21T12:39:56.567Z,45.00
2017-11-21T12:40:56.572Z,45.00
2017-11-21T12:41:56.559Z,50.63
2017-11-21T12:42:56.560Z,45.00
2017-11-21T12:43:56.558Z,39.38
2017-11-21T12:44:56.549Z,39.38
2017-11-21T12:45:56.530Z,39.38
2017-11-21T12:46:56.543Z,39.38
2017-11-21T12:47:56.529Z,39.38
2017-11-21T12:48:56.522Z,45.00
2017-11-21T12:49:56.514Z,45.00
2017-11-21T12:50:57.261Z,45.00
2017-11-21T12:51:56.512Z,56.25
2017-11-21T12:52:56.511Z,73.13
2017-11-21T12:53:56.510Z,67.50
2017-11-21T12:54:56.522Z,61.88
2017-11-21T12:55:56.494Z,56.25
2017-11-21T12:56:56.481Z,56.25
2017-11-21T12:57:57.274Z,61.88
2017-11-21T12:58:56.474Z,61.88
2017-11-21T12:59:56.472Z,67.50
2017-11-21T13:00:57.269Z,73.13
2017-11-21T13:01:56.465Z,67.50
2017-11-21T13:02:56.453Z,67.50
2017-11-21T13:03:56.452Z,73.13
2017-11-21T13:04:56.449Z,78.75
2017-11-21T13:05:56.443Z,84.38
2017-11-21T13:06:56.442Z,90.00
2017-11-21T13:07:56.437Z,84.38
2017-11-21T13:08:56.430Z,78.75
2017-11-21T13:09:56.422Z,78.75
2017-11-21T13:10:56.424Z,67.50
2017-11-21T13:11:56.407Z,61.88
2017-11-21T13:12:56.408Z,67.50
2017-11-21T13:13:56.403Z,67.50
2017-11-21T13:14:56.398Z,73.13
2017-11-21T13:15:56.399Z,73.13
2017-11-21T13:16:56.385Z,78.75
2017-11-21T13:17:56.375Z,78.75
2017-11-21T13:18:56.378Z,78.75
2017-11-21T13:19:56.377Z,78.75
2017-11-21T13:20:56.365Z,78.75
2017-11-21T13:21:56.364Z,78.75
2017-11-21T13:22:56.368Z,78.75
2017-11-21T13:23:56.361Z,84.38
2017-11-21T13:24:56.345Z,78.75
2017-11-21T13:25:56.345Z,78.75
2017-11-21T13:26:56.342Z,78.75
2017-11-21T13:27:56.337Z,78.75
2017-11-21T13:28:56.325Z,73.13
2017-11-21T13:29:56.336Z,67.50
2017-11-21T13:30:56.322Z,61.88
2017-11-21T13:31:56.317Z,67.50
2017-11-21T13:32:56.312Z,67.50
2017-11-21T13:33:56.301Z,67.50
2017-11-21T13:34:56.299Z,73.13
2017-11-21T13:35:56.304Z,73.13
2017-11-21T13:36:56.291Z,67.50
2017-11-21T13:37:56.292Z,67.50
2017-11-21T13:38:56.287Z,61.88
2017-11-21T13:39:56.289Z,61.88
2017-11-21T13:40:56.280Z,61.88
2017-11-21T13:41:56.277Z,61.88
2017-11-21T13:42:56.265Z,67.50
2017-11-21T13:43:56.264Z,61.88
2017-11-21T13:44:56.255Z,61.88
2017-11-21T13:45:56.248Z,61.88
2017-11-21T13:46:56.240Z,61.88
2017-11-21T13:47:56.268Z,61.88
2017-11-21T13:48:56.236Z,61.88
2017-11-21T13:49:56.230Z,56.25
2017-11-21T13:50:56.230Z,56.25
2017-11-21T13:51:56.222Z,56.25
2017-11-21T13:52:56.226Z,56.25
2017-11-21T13:53:56.209Z,56.25
2017-11-21T13:54:56.223Z,56.25
2017-11-21T13:55:56.788Z,56.25
2017-11-21T13:56:56.206Z,50.63
2017-11-21T13:57:56.189Z,56.25
2017-11-21T13:58:56.787Z,56.25
2017-11-21T13:59:56.187Z,56.25
2017-11-21T14:00:56.183Z,56.25
2017-11-21T14:01:56.172Z,56.25
2017-11-21T14:02:56.173Z,61.88
2017-11-21T14:03:56.168Z,61.88
2017-11-21T14:04:56.164Z,61.88
2017-11-21T14:05:56.167Z,61.88
2017-11-21T14:06:56.153Z,61.88
2017-11-21T14:07:56.151Z,61.88
2017-11-21T14:08:56.143Z,56.25
2017-11-21T14:09:56.140Z,61.88
2017-11-21T14:10:56.138Z,56.25
2017-11-21T14:11:56.129Z,50.63
2017-11-21T14:12:56.125Z,50.63
2017-11-21T14:13:56.128Z,50.63
2017-11-21T14:14:56.105Z,56.25
2017-11-21T14:15:56.103Z,50.63
2017-11-21T14:16:56.123Z,39.38
2017-11-21T14:17:56.106Z,33.75
2017-11-21T14:18:56.110Z,33.75
2017-11-21T14:19:56.095Z,33.75
2017-11-21T14:20:56.091Z,33.75
2017-11-21T14:21:56.082Z,33.75
2017-11-21T14:22:56.079Z,28.13
2017-11-21T14:23:56.077Z,28.13
2017-11-21T14:24:56.078Z,28.13
2017-11-21T14:25:56.803Z,28.13
2017-11-21T14:26:56.048Z,22.50
2017-11-21T14:27:56.053Z,22.50
2017-11-21T14:28:56.050Z,28.13
2017-11-21T14:29:56.056Z,33.75
2017-11-21T14:30:56.795Z,33.75
2017-11-21T14:31:56.791Z,33.75
2017-11-21T14:32:56.021Z,33.75
2017-11-21T14:33:56.032Z,28.13
2017-11-21T14:34:56.014Z,28.13
2017-11-21T14:35:56.038Z,22.50
2017-11-21T14:36:56.003Z,22.50
2017-11-21T14:37:56.002Z,22.50
2017-11-21T14:38:56.811Z,16.88
2017-11-21T14:39:55.999Z,16.88
2017-11-21T14:40:55.996Z,16.88
2017-11-21T14:41:55.977Z,11.25
2017-11-21T14:42:56.805Z,11.25
2017-11-21T14:43:55.971Z,11.25
2017-11-21T14:44:55.974Z,16.88
2017-11-21T14:45:55.960Z,11.25
2017-11-21T14:46:55.951Z,16.88
2017-11-21T14:47:55.953Z,16.88
2017-11-21T14:48:55.945Z,16.88
2017-11-21T14:49:55.947Z,16.88
2017-11-21T14:50:55.928Z,16.88
2017-11-21T14:51:56.803Z,16.88
2017-11-21T14:52:55.918Z,16.88
2017-11-21T14:53:55.923Z,16.88
2017-11-21T14:54:55.910Z,16.88
2017-11-21T14:55:55.930Z,16.88
2017-11-21T14:56:55.895Z,16.88
2017-11-21T14:57:55.894Z,16.88
2017-11-21T14:58:55.889Z,16.88
2017-11-21T14:59:55.889Z,16.88
2017-11-21T15:00:55.881Z,16.88
2017-11-21T15:01:55.876Z,16.88
2017-11-21T15:02:55.896Z,11.25
2017-11-21T15:03:56.819Z,11.25
2017-11-21T15:04:55.859Z,11.25
2017-11-21T15:05:55.877Z,11.25
2017-11-21T15:06:55.842Z,11.25
2017-11-21T15:07:55.839Z,11.25
2017-11-21T15:08:55.829Z,11.25
2017-11-21T15:09:55.836Z,11.25
2017-11-21T15:10:55.837Z,11.25
2017-11-21T15:11:56.314Z,11.25
2017-11-21T15:12:55.823Z,11.25
2017-11-21T15:13:55.813Z,11.25
2017-11-21T15:14:55.806Z,11.25
2017-11-21T15:15:55.796Z,11.25
2017-11-21T15:16:55.803Z,5.63
2017-11-21T15:17:55.790Z,5.63
2017-11-21T15:18:55.776Z,5.63
2017-11-21T15:19:56.341Z,5.63
2017-11-21T15:20:55.762Z,5.63
2017-11-21T15:21:55.766Z,5.63
2017-11-21T15:22:56.324Z,5.63
2017-11-21T15:23:55.759Z,5.63
2017-11-21T15:24:55.738Z,5.63
2017-11-21T15:25:55.745Z,5.63
2017-11-21T15:26:56.324Z,5.63
2017-11-21T15:27:55.726Z,5.63
2017-11-21T15:28:55.718Z,5.63
2017-11-21T15:29:55.717Z,5.63
2017-11-21T15:30:55.723Z,0.00
2017-11-21T15:31:55.718Z,0.00
2017-11-21T15:32:55.708Z,0.00
2017-11-21T15:33:55.711Z,0.00
2017-11-21T15:34:55.692Z,0.00
2017-11-21T15:35:55.681Z,0.00
2017-11-21T15:36:56.326Z,0.00
2017-11-21T15:37:55.672Z,0.00
2017-11-21T15:38:55.680Z,0.00
2017-11-21T15:39:55.663Z,0.00
2017-11-21T15:40:56.322Z,0.00
2017-11-21T15:41:55.648Z,0.00
2017-11-21T15:42:55.641Z,0.00
2017-11-21T15:43:55.648Z,0.00
2017-11-21T15:44:55.630Z,0.00
2017-11-21T15:45:55.618Z,0.00
2017-11-21T15:46:55.625Z,0.00
2017-11-21T15:47:55.608Z,0.00
2017-11-21T15:48:55.610Z,0.00
2017-11-21T15:49:55.604Z,0.00
2017-11-21T15:50:55.624Z,0.00
2017-11-21T15:51:55.593Z,0.00
2017-11-21T15:52:55.579Z,0.00
2017-11-21T15:53:55.568Z,0.00
2017-11-21T15:54:55.583Z,0.00
2017-11-21T15:55:55.574Z,0.00
2017-11-21T15:56:55.554Z,0.00
2017-11-21T15:57:55.568Z,0.00
2017-11-21T15:58:55.541Z,0.00
2017-11-21T15:59:55.546Z,0.00
2017-11-21T16:00:55.532Z,0.00
2017-11-21T16:01:55.525Z,0.00
2017-11-21T16:02:55.557Z,0.00
2017-11-21T16:03:55.509Z,0.00
2017-11-21T16:04:55.502Z,0.00
2017-11-21T16:05:56.335Z,0.00
2017-11-21T16:06:55.504Z,0.00
2017-11-21T16:07:55.481Z,0.00
2017-11-21T16:08:55.488Z,0.00
2017-11-21T16:09:55.486Z,0.00
2017-11-21T16:10:55.474Z,0.00
2017-11-21T16:11:56.272Z,0.00
2017-11-21T16:12:55.469Z,0.00
2017-11-21T16:13:55.457Z,0.00
2017-11-21T16:14:55.442Z,0.00
2017-11-21T16:15:55.440Z,0.00
2017-11-21T16:16:55.443Z,0.00
2017-11-21T16:17:55.425Z,0.00
2017-11-21T16:18:55.445Z,0.00
2017-11-21T16:19:55.426Z,0.00
2017-11-21T16:20:55.411Z,0.00
2017-11-21T16:21:55.405Z,0.00
2017-11-21T16:22:55.397Z,0.00
2017-11-21T16:23:55.395Z,0.00
2017-11-21T16:24:55.382Z,0.00
2017-11-21T16:25:55.386Z,0.00
2017-11-21T16:26:55.390Z,0.00
2017-11-21T16:27:55.364Z,0.00
2017-11-21T16:28:55.364Z,0.00
2017-11-21T16:29:55.369Z,0.00
2017-11-21T16:30:55.383Z,0.00
2017-11-21T16:31:55.356Z,0.00
2017-11-21T16:32:55.347Z,0.00
2017-11-21T16:33:55.341Z,0.00
2017-11-21T16:34:55.338Z,0.00
2017-11-21T16:35:55.321Z,0.00
2017-11-21T16:36:55.350Z,0.00
2017-11-21T16:37:55.309Z,0.00
2017-11-21T16:38:55.301Z,0.00
2017-11-21T16:39:55.296Z,0.00
2017-11-21T16:40:55.296Z,0.00
2017-11-21T16:41:55.296Z,0.00
2017-11-21T16:42:55.286Z,0.00
2017-11-21T16:43:55.278Z,0.00
2017-11-21T16:44:55.267Z,0.00
2017-11-21T16:45:55.257Z,0.00
2017-11-21T16:46:55.253Z,0.00
2017-11-21T16:47:55.270Z,0.00
2017-11-21T16:48:55.262Z,0.00
2017-11-21T16:49:55.243Z,0.00
2017-11-21T16:50:55.239Z,0.00
2017-11-21T16:51:55.223Z,0.00
2017-11-21T16:52:55.226Z,0.00
2017-11-21T16:53:55.203Z,0.00
2017-11-21T16:54:55.214Z,0.00
2017-11-21T16:55:55.205Z,0.00
2017-11-21T16:56:55.202Z,0.00
2017-11-21T16:57:55.185Z,0.00
2017-11-21T16:58:55.170Z,0.00
2017-11-21T16:59:55.175Z,0.00
2017-11-21T17:00:55.172Z,0.00
2017-11-21T17:01:55.163Z,0.00
2017-11-21T17:02:55.148Z,0.00
2017-11-21T17:03:55.148Z,0.00
2017-11-21T17:04:55.146Z,0.00
2017-11-21T17:05:55.144Z,0.00
2017-11-21T17:06:55.132Z,0.00
2017-11-21T17:07:55.121Z,0.00
2017-11-21T17:08:55.122Z,0.00
2017-11-21T17:09:55.112Z,0.00
2017-11-21T17:10:55.110Z,0.00
2017-11-21T17:11:55.100Z,0.00
2017-11-21T17:12:55.090Z,0.00
2017-11-21T17:13:55.101Z,0.00
2017-11-21T17:14:55.079Z,0.00
2017-11-21T17:15:55.074Z,0.00
2017-11-21T17:16:55.102Z,0.00
2017-11-21T17:17:55.061Z,0.00
2017-11-21T17:18:55.059Z,0.00
2017-11-21T17:19:55.057Z,0.00
2017-11-21T17:20:55.044Z,0.00
2017-11-21T17:21:55.046Z,0.00
2017-11-21T17:22:55.037Z,0.00
2017-11-21T17:23:55.031Z,0.00
2017-11-21T17:24:55.017Z,0.00
2017-11-21T17:25:55.017Z,0.00
2017-11-21T17:26:55.004Z,0.00
2017-11-21T17:27:54.999Z,0.00
2017-11-21T17:28:54.994Z,0.00
2017-11-21T17:29:54.991Z,0.00
2017-11-21T17:30:55.006Z,0.00
2017-11-21T17:31:54.973Z,0.00
2017-11-21T17:32:54.962Z,0.00
2017-11-21T17:33:54.959Z,0.00
2017-11-21T17:34:54.957Z,0.00
2017-11-21T17:35:54.960Z,0.00
2017-11-21T17:36:54.936Z,0.00
2017-11-21T17:37:54.935Z,0.00
2017-11-21T17:38:54.936Z,0.00
2017-11-21T17:39:54.918Z,0.00
2017-11-21T17:40:54.912Z,0.00
2017-11-21T17:41:54.912Z,0.00
2017-11-21T17:42:54.904Z,0.00
2017-11-21T17:43:54.901Z,0.00
2017-11-21T17:44:54.894Z,0.00
2017-11-21T17:45:54.890Z,0.00
2017-11-21T17:46:54.879Z,0.00
2017-11-21T17:47:54.873Z,0.00
2017-11-21T17:48:54.868Z,0.00
2017-11-21T17:49:55.379Z,0.00
2017-11-21T17:50:54.848Z,0.00
2017-11-21T17:51:54.844Z,0.00
2017-11-21T17:52:54.829Z,0.00
2017-11-21T17:53:54.835Z,0.00
2017-11-21T17:54:54.834Z,0.00
2017-11-21T17:55:54.817Z,0.00
2017-11-21T17:56:54.817Z,0.00
2017-11-21T17:57:55.520Z,0.00
2017-11-21T17:58:54.801Z,0.00
2017-11-21T17:59:54.797Z,0.00
2017-11-21T18:00:54.788Z,0.00
2017-11-21T18:01:54.775Z,0.00
2017-11-21T18:02:54.775Z,0.00
2017-11-21T18:03:55.390Z,0.00
2017-11-21T18:04:54.773Z,0.00
2017-11-21T18:05:54.752Z,0.00
2017-11-21T18:06:54.756Z,0.00
2017-11-21T18:07:54.737Z,0.00
2017-11-21T18:08:54.739Z,0.00
2017-11-21T18:09:54.734Z,0.00
2017-11-21T18:10:54.722Z,0.00
2017-11-21T18:11:54.722Z,0.00
2017-11-21T18:12:54.702Z,0.00
2017-11-21T18:13:54.701Z,0.00
2017-11-21T18:14:54.699Z,0.00
2017-11-21T18:15:55.411Z,0.00
2017-11-21T18:16:57.387Z,0.00
2017-11-21T18:17:54.675Z,0.00
2017-11-21T18:18:54.675Z,0.00
2017-11-21T18:19:54.661Z,0.00
2017-11-21T18:20:54.652Z,0.00
2017-11-21T18:21:54.650Z,0.00
2017-11-21T18:22:54.644Z,0.00
2017-11-21T18:23:54.641Z,0.00
2017-11-21T18:24:54.634Z,0.00
2017-11-21T18:25:54.618Z,0.00
2017-11-21T18:26:54.618Z,0.00
2017-11-21T18:27:54.947Z,0.00
2017-11-21T18:28:54.597Z,0.00
2017-11-21T18:29:54.609Z,0.00
2017-11-21T18:30:54.589Z,0.00
2017-11-21T18:31:54.586Z,0.00
2017-11-21T18:32:54.578Z,0.00
2017-11-21T18:33:54.577Z,0.00
2017-11-21T18:34:54.585Z,0.00
2017-11-21T18:35:54.562Z,0.00
2017-11-21T18:36:54.553Z,0.00
2017-11-21T18:37:54.548Z,0.00
2017-11-21T18:38:54.542Z,0.00
2017-11-21T18:39:54.537Z,0.00
2017-11-21T18:40:54.537Z,0.00
2017-11-21T18:41:54.522Z,0.00
2017-11-21T18:42:54.523Z,0.00
2017-11-21T18:43:54.509Z,0.00
2017-11-21T18:44:54.501Z,0.00
2017-11-21T18:45:55.411Z,0.00
2017-11-21T18:46:54.492Z,0.00
2017-11-21T18:47:54.489Z,0.00
2017-11-21T18:48:54.475Z,0.00
2017-11-21T18:49:54.470Z,0.00
2017-11-21T18:50:55.416Z,0.00
2017-11-21T18:51:54.453Z,0.00
2017-11-21T18:52:54.450Z,0.00
2017-11-21T18:53:54.446Z,0.00
2017-11-21T18:54:54.440Z,0.00
2017-11-21T18:55:54.435Z,0.00
2017-11-21T18:56:55.421Z,0.00
2017-11-21T18:57:54.437Z,0.00
2017-11-21T18:58:54.405Z,0.00
2017-11-21T18:59:54.404Z,0.00
2017-11-21T19:00:54.404Z,0.00
2017-11-21T19:01:54.383Z,0.00
2017-11-21T19:02:54.916Z,0.00
2017-11-21T19:03:54.390Z,0.00
2017-11-21T19:04:56.130Z,0.00
2017-11-21T19:05:54.364Z,0.00
2017-11-21T19:06:54.359Z,0.00
2017-11-21T19:07:54.345Z,0.00
2017-11-21T19:08:54.336Z,0.00
2017-11-21T19:09:54.340Z,0.00
2017-11-21T19:10:54.336Z,0.00
2017-11-21T19:11:54.320Z,0.00
2017-11-21T19:12:54.322Z,0.00
2017-11-21T19:13:54.311Z,0.00
2017-11-21T19:14:54.308Z,0.00
2017-11-21T19:15:54.314Z,0.00
2017-11-21T19:16:54.296Z,0.00
2017-11-21T19:17:54.288Z,0.00
2017-11-21T19:18:54.274Z,0.00
2017-11-21T19:19:54.276Z,0.00
2017-11-21T19:20:54.267Z,0.00
2017-11-21T19:21:54.253Z,0.00
2017-11-21T19:22:54.255Z,0.00
2017-11-21T19:23:54.267Z,0.00
2017-11-21T19:24:54.262Z,0.00
2017-11-21T19:25:54.239Z,0.00
2017-11-21T19:26:54.220Z,0.00
2017-11-21T19:27:54.226Z,0.00
2017-11-21T19:28:54.210Z,0.00
2017-11-21T19:29:54.794Z,0.00
2017-11-21T19:30:54.202Z,0.00
2017-11-21T19:31:55.652Z,0.00
2017-11-21T19:32:55.061Z,0.00
2017-11-21T19:33:54.178Z,0.00
2017-11-21T19:34:54.174Z,0.00
2017-11-21T19:35:54.583Z,0.00
2017-11-21T19:36:54.163Z,0.00
2017-11-21T19:37:54.151Z,0.00
2017-11-21T19:38:54.148Z,0.00
2017-11-21T19:39:54.139Z,0.00
2017-11-21T19:40:54.935Z,0.00
2017-11-21T19:41:54.149Z,0.00
2017-11-21T19:42:54.137Z,0.00
2017-11-21T19:43:54.110Z,0.00
2017-11-21T19:44:54.109Z,0.00
2017-11-21T19:45:54.119Z,0.00
2017-11-21T19:46:54.105Z,0.00
2017-11-21T19:47:54.939Z,0.00
2017-11-21T19:48:54.085Z,0.00
2017-11-21T19:49:54.096Z,0.00
2017-11-21T19:50:54.069Z,0.00
2017-11-21T19:51:54.067Z,0.00
2017-11-21T19:52:54.051Z,0.00
2017-11-21T19:53:54.050Z,0.00
2017-11-21T19:54:54.126Z,0.00
2017-11-21T19:55:54.044Z,0.00
2017-11-21T19:56:54.028Z,0.00
2017-11-21T19:57:54.018Z,0.00
2017-11-21T19:58:54.013Z,0.00
2017-11-21T19:59:54.001Z,0.00
2017-11-21T20:00:53.993Z,0.00
2017-11-21T20:01:53.988Z,0.00
2017-11-21T20:02:54.003Z,0.00
2017-11-21T20:03:54.953Z,0.00
2017-11-21T20:04:53.985Z,0.00
2017-11-21T20:05:53.992Z,0.00
2017-11-21T20:06:54.948Z,0.00
2017-11-21T20:07:53.971Z,0.00
2017-11-21T20:08:53.967Z,0.00
2017-11-21T20:09:53.939Z,0.00
2017-11-21T20:10:53.940Z,0.00
2017-11-21T20:11:53.924Z,0.00
2017-11-21T20:12:54.460Z,0.00
2017-11-21T20:13:53.918Z,0.00
2017-11-21T20:14:53.946Z,0.00
2017-11-21T20:15:53.908Z,0.00
2017-11-21T20:16:53.909Z,0.00
2017-11-21T20:17:53.894Z,0.00
2017-11-21T20:18:53.912Z,0.00
2017-11-21T20:19:54.450Z,0.00
2017-11-21T20:20:54.451Z,0.00
2017-11-21T20:22:00.451Z,0.00
2017-11-21T20:22:53.853Z,0.00
2017-11-21T20:23:53.865Z,0.00
2017-11-21T20:24:53.849Z,0.00
2017-11-21T20:25:54.453Z,0.00
2017-11-21T20:26:53.833Z,0.00
2017-11-21T20:27:53.824Z,0.00
2017-11-21T20:28:53.835Z,0.00
2017-11-21T20:29:53.806Z,0.00
2017-11-21T20:30:53.802Z,0.00
2017-11-21T20:31:53.797Z,0.00
2017-11-21T20:32:54.460Z,0.00
2017-11-21T20:33:53.786Z,0.00
2017-11-21T20:34:54.475Z,0.00
2017-11-21T20:35:53.769Z,0.00
2017-11-21T20:36:53.773Z,0.00
2017-11-21T20:37:53.759Z,0.00
2017-11-21T20:38:54.476Z,0.00
2017-11-21T20:39:53.749Z,0.00
2017-11-21T20:40:53.734Z,0.00
2017-11-21T20:41:53.728Z,0.00
2017-11-21T20:42:53.736Z,0.00
2017-11-21T20:43:53.707Z,0.00